createdAt,value
2018-12-10T00:04:55.472Z,94614.1
2018-12-10T00:09:52.751Z,94606.5
2018-12-10T00:14:50.093Z,94606
2018-12-10T00:19:48.191Z,94600.5
2018-12-10T00:24:45.191Z,94593.6
2018-12-10T00:29:42.546Z,94586.7
2018-12-10T00:34:39.365Z,94592.6
2018-12-10T00:39:36.686Z,94599.6
2018-12-10T00:44:33.911Z,94602.7
2018-12-10T00:49:31.468Z,94606.7
2018-12-10T00:54:28.724Z,94591.9
2018-12-10T00:59:26.552Z,94578.3
2018-12-10T01:04:24.066Z,94575.8
2018-12-10T01:09:21.594Z,94572.2
2018-12-10T01:14:18.955Z,94565.1
2018-12-10T01:19:16.222Z,94556.9
2018-12-10T01:24:13.695Z,94548.1
2018-12-10T01:29:10.907Z,94533
2018-12-10T01:34:08.271Z,94537
2018-12-10T01:39:05.686Z,94545.9
2018-12-10T01:44:03.273Z,94541.5
2018-12-10T01:49:00.443Z,94537.2
2018-12-10T01:53:57.844Z,94534.8
2018-12-10T01:58:54.853Z,94536.7
2018-12-10T02:03:52.175Z,94534.5
2018-12-10T02:08:49.706Z,94522.7
2018-12-10T02:13:47.311Z,94511.9
2018-12-10T02:18:44.913Z,94511
2018-12-10T02:23:42.339Z,94506.6
2018-12-10T02:28:39.689Z,94491.3
2018-12-10T02:33:37.068Z,94478.3
2018-12-10T02:38:34.964Z,94464.8
2018-12-10T02:43:32.195Z,94468.4
2018-12-10T02:48:29.336Z,94469.8
2018-12-10T02:53:27.124Z,94470.6
2018-12-10T02:58:24.798Z,94441
2018-12-10T03:03:22.272Z,94444.9
2018-12-10T03:08:19.675Z,94453.5
2018-12-10T03:13:16.756Z,94451.1
2018-12-10T03:18:13.754Z,94451.5
2018-12-10T03:23:11.646Z,94452.2
2018-12-10T03:28:09.053Z,94460.7
2018-12-10T03:33:06.485Z,94464.7
2018-12-10T03:38:03.618Z,94483.8
2018-12-10T03:43:01.196Z,94488.6
2018-12-10T03:47:58.591Z,94502.3
2018-12-10T03:52:56.052Z,94499.2
2018-12-10T03:57:53.763Z,94507.8
2018-12-10T04:02:51.282Z,94503.5
2018-12-10T04:07:48.422Z,94512.8
2018-12-10T04:12:45.705Z,94510
2018-12-10T04:17:43.213Z,94504.8
2018-12-10T04:22:40.957Z,94511.5
2018-12-10T04:27:38.154Z,94508
2018-12-10T04:32:35.520Z,94505.4
2018-12-10T04:37:32.928Z,94515.4
2018-12-10T04:42:30.079Z,94513.6
2018-12-10T04:47:27.358Z,94509.4
2018-12-10T04:52:25.118Z,94510
2018-12-10T04:57:22.340Z,94506.1
2018-12-10T05:02:20.165Z,94508.8
2018-12-10T05:07:16.213Z,94501
2018-12-10T05:12:13.706Z,94496.5
2018-12-10T05:17:10.775Z,94489.5
2018-12-10T05:22:08.208Z,94478.7
2018-12-10T05:27:05.733Z,94470
2018-12-10T05:32:03.110Z,94487.5
2018-12-10T05:37:00.166Z,94475.1
2018-12-10T05:41:57.552Z,94497.2
2018-12-10T05:46:54.892Z,94508.9
2018-12-10T05:51:52.500Z,94516.1
2018-12-10T05:56:49.921Z,94520.3
2018-12-10T06:01:47.675Z,94525
2018-12-10T06:06:48.310Z,94525.1
2018-12-10T06:11:46.594Z,94541.8
2018-12-10T06:16:46.098Z,94453.9
2018-12-10T06:21:42.064Z,94549
2018-12-10T06:26:39.482Z,94549.2
2018-12-10T06:31:36.604Z,94556.1
2018-12-10T06:36:33.874Z,94562.9
2018-12-10T06:41:30.967Z,94573.4
2018-12-10T06:46:28.288Z,94583.7
2018-12-10T06:51:25.939Z,94591.6
2018-12-10T06:56:23.845Z,94597.3
2018-12-10T07:01:21.425Z,94610
2018-12-10T07:06:18.272Z,94616
2018-12-10T07:11:15.652Z,94630.2
2018-12-10T07:16:12.796Z,94637.9
2018-12-10T07:21:10.101Z,94646.2
2018-12-10T07:26:12.047Z,94572.4
2018-12-10T07:31:08.152Z,94659.9
2018-12-10T07:36:05.374Z,94671.8
2018-12-10T07:41:03.146Z,94669.1
2018-12-10T07:46:00.499Z,94672.4
2018-12-10T07:50:57.727Z,94687.7
2018-12-10T07:55:55.067Z,94690.3
2018-12-10T08:00:52.375Z,94695.9
2018-12-10T08:05:49.741Z,94697.8
2018-12-10T08:10:47.027Z,94705.8
2018-12-10T08:15:44.256Z,94709.2
2018-12-10T08:20:41.586Z,94721.6
2018-12-10T08:25:39.127Z,94724.6
2018-12-10T08:30:36.606Z,94720.8
2018-12-10T08:35:40.778Z,94726
2018-12-10T08:40:31.520Z,94733.2
2018-12-10T08:45:28.888Z,94731.7
2018-12-10T08:50:26.964Z,94729.1
2018-12-10T08:55:24.428Z,94731.8
2018-12-10T09:00:26.053Z,94655.2
2018-12-10T09:05:22.383Z,94724.4
2018-12-10T09:10:19.765Z,94724.1
2018-12-10T09:15:17.121Z,94721.6
2018-12-10T09:20:16.213Z,94718.3
2018-12-10T09:25:14.482Z,94722
2018-12-10T09:30:12.265Z,94719.4
2018-12-10T09:35:10.466Z,94722.8
2018-12-10T09:40:07.506Z,94719.2
2018-12-10T09:45:04.847Z,94717.4
2018-12-10T09:50:02.099Z,94713.2
2018-12-10T09:54:59.437Z,94713.9
2018-12-10T09:59:56.752Z,94711.8
2018-12-10T10:04:54.250Z,94717.1
2018-12-10T10:09:51.866Z,94707.8
2018-12-10T10:14:49.801Z,94700.6
2018-12-10T10:19:46.877Z,94677.1
2018-12-10T10:24:44.399Z,94706
2018-12-10T10:29:42.308Z,94697.6
2018-12-10T10:34:39.454Z,94688.7
2018-12-10T10:39:39.998Z,94684.3
2018-12-10T10:44:36.315Z,94678.4
2018-12-10T10:49:34.034Z,94677.2
2018-12-10T10:54:31.309Z,94677.1
2018-12-10T10:59:29.579Z,94675.4
2018-12-10T11:04:26.776Z,94671.1
2018-12-10T11:09:26.134Z,94670.3
2018-12-10T11:14:22.323Z,94675.1
2018-12-10T11:19:19.981Z,94670.5
2018-12-10T11:24:17.427Z,94633.8
2018-12-10T11:29:15.344Z,94669.8
2018-12-10T11:34:12.762Z,94679.2
2018-12-10T11:39:09.684Z,94686.2
2018-12-10T11:44:06.880Z,94685.6
2018-12-10T11:49:04.697Z,94677.8
2018-12-10T11:54:06.902Z,94681.1
2018-12-10T11:59:03.268Z,94676.4
2018-12-10T12:04:01.361Z,94679.4
2018-12-10T12:08:58.831Z,94681.6
2018-12-10T12:13:56.321Z,94643.9
2018-12-10T12:18:53.856Z,94684.5
2018-12-10T12:23:51.195Z,94677.5
2018-12-10T12:28:48.600Z,94617
2018-12-10T12:33:44.433Z,94676.4
2018-12-10T12:38:42.660Z,94674.8
2018-12-10T12:43:39.673Z,94744
2018-12-10T12:48:36.804Z,94716
2018-12-10T12:53:34.992Z,94674.1
2018-12-10T12:58:32.928Z,94673.3
2018-12-10T13:03:30.389Z,93861.4
2018-12-10T13:08:31.545Z,94605.4
2018-12-10T13:13:27.887Z,94745.9
2018-12-10T13:18:25.627Z,94650.1
2018-12-10T13:23:22.361Z,94686.4
2018-12-10T13:28:19.533Z,94754.3
2018-12-10T13:33:22.265Z,94688
2018-12-10T13:38:19.727Z,94688.9
2018-12-10T13:43:16.891Z,94693.5
2018-12-10T13:48:14.270Z,94696.1
2018-12-10T13:53:12.184Z,94769.7
2018-12-10T13:58:10.076Z,94763.1
2018-12-10T14:03:07.113Z,94768.7
2018-12-10T14:08:04.614Z,94768.4
2018-12-10T14:13:01.784Z,94771.8
2018-12-10T14:17:59.227Z,94623.8
2018-12-10T14:22:54.167Z,94731.7
2018-12-10T14:27:50.946Z,94783.7
2018-12-10T14:32:48.545Z,94799.1
2018-12-10T14:37:45.998Z,94680.9
2018-12-10T14:42:44.049Z,94719.9
2018-12-10T14:47:41.497Z,94789.9
2018-12-10T14:52:39.018Z,94642
2018-12-10T14:57:36.457Z,94725.3
2018-12-10T15:02:34.095Z,94801.9
2018-12-10T15:07:33.087Z,94736.9
2018-12-10T15:12:30.490Z,94832.7
2018-12-10T15:17:34.475Z,94756.2
2018-12-10T15:22:30.446Z,94831.9
2018-12-10T15:27:27.946Z,94762
2018-12-10T15:32:25.228Z,94766.4
2018-12-10T15:37:22.706Z,94835.4
2018-12-10T15:42:20.640Z,94872
2018-12-10T15:47:18.451Z,94779.9
2018-12-10T15:57:13.496Z,94784
2018-12-10T16:02:10.647Z,94782.2
2018-12-10T16:07:08.137Z,94860.1
2018-12-10T16:12:06.108Z,94793.5
2018-12-10T16:17:03.554Z,94792.2
2018-12-10T16:22:00.852Z,94803.5
2018-12-10T16:26:58.181Z,94804.5
2018-12-10T16:31:55.939Z,94804.4
2018-12-10T16:36:53.353Z,94808.5
2018-12-10T16:41:50.629Z,94813.3
2018-12-10T16:46:50.060Z,94816.5
2018-12-10T16:51:46.850Z,94823.1
2018-12-10T16:56:44.178Z,94826.1
2018-12-10T17:01:41.263Z,94827.8
2018-12-10T17:06:39.261Z,94835.3
2018-12-10T17:11:37.076Z,94833.6
2018-12-10T17:16:34.382Z,94835.3
2018-12-10T17:21:33.175Z,94837.3
2018-12-10T17:26:30.089Z,94839.5
2018-12-10T17:31:27.537Z,94845
2018-12-10T17:36:24.742Z,94848.1
2018-12-10T17:41:22.152Z,94849.2
2018-12-10T17:46:19.468Z,94851.8
2018-12-10T17:51:16.631Z,94858.1
2018-12-10T17:56:14.200Z,94861.7
2018-12-10T18:01:11.747Z,94863.4
2018-12-10T18:06:08.995Z,94872.6
2018-12-10T18:11:06.475Z,94871.4
2018-12-10T18:16:03.688Z,94870
2018-12-10T18:21:01.365Z,94872.5
2018-12-10T18:25:58.660Z,94871.3
2018-12-10T18:30:56.024Z,94872.8
2018-12-10T18:35:53.358Z,94887.3
2018-12-10T18:40:50.911Z,94846.5
2018-12-10T18:45:47.763Z,94884.8
2018-12-10T18:50:45.260Z,94882.5
2018-12-10T18:55:42.645Z,94892.9
2018-12-10T19:00:39.868Z,94905.2
2018-12-10T19:05:37.354Z,94910.1
2018-12-10T19:10:34.826Z,94907.3
2018-12-10T19:15:31.994Z,94916.5
2018-12-10T19:20:29.375Z,94916.7
2018-12-10T19:25:26.614Z,94922
2018-12-10T19:30:24.266Z,94923.5
2018-12-10T19:35:21.610Z,94928.7
2018-12-10T19:40:19.296Z,94927.7
2018-12-10T19:45:16.512Z,94934
2018-12-10T19:50:14.054Z,94924.3
2018-12-10T19:55:11.265Z,94927.2
2018-12-10T20:00:08.995Z,94922.8
2018-12-10T20:05:06.354Z,94922.7
2018-12-10T20:10:04.046Z,94913.3
2018-12-10T20:15:00.900Z,94918.5
2018-12-10T20:19:58.091Z,94906.1
2018-12-10T20:24:55.593Z,94904.7
2018-12-10T20:29:53.035Z,94912.5
2018-12-10T20:34:50.297Z,94906.3
2018-12-10T20:39:47.681Z,94884.7
2018-12-10T20:44:45.015Z,94923.3
2018-12-10T20:49:42.449Z,94921.9
2018-12-10T20:54:40.254Z,94929.2
2018-12-10T20:59:37.834Z,94928.4
2018-12-10T21:04:35.224Z,94932
2018-12-10T21:09:32.703Z,94934.4
2018-12-10T21:14:30.108Z,94936.8
2018-12-10T21:19:27.127Z,94944.5
2018-12-10T21:24:24.721Z,94948.7
2018-12-10T21:29:22.167Z,94953.9
2018-12-10T21:34:19.611Z,94943.8
2018-12-10T21:39:17.230Z,94950.3
2018-12-10T21:44:14.514Z,94945.5
2018-12-10T21:49:12.027Z,94950
2018-12-10T21:54:09.274Z,94925.2
2018-12-10T21:59:06.898Z,94949.6
2018-12-10T22:04:04.177Z,94956
2018-12-10T22:09:01.743Z,94950.9
2018-12-10T22:13:58.810Z,94955.6
2018-12-10T22:18:56.270Z,94964.2
2018-12-10T22:23:53.519Z,94905.4
2018-12-10T22:28:51.165Z,94962.1
2018-12-10T22:33:48.708Z,94967
2018-12-10T22:38:46.204Z,94970.4
2018-12-10T22:43:43.554Z,94974.9
2018-12-10T22:48:41.201Z,94971.7
2018-12-10T22:53:38.826Z,94971.7
2018-12-10T22:58:36.161Z,94970.9
2018-12-10T23:03:33.501Z,94969.8
2018-12-10T23:08:30.998Z,94966.3
2018-12-10T23:13:28.340Z,94975.6
2018-12-10T23:18:25.794Z,94971.8
2018-12-10T23:23:23.555Z,94978.6
2018-12-10T23:28:20.933Z,94972.6
2018-12-10T23:33:18.399Z,94987.6
2018-12-10T23:38:15.693Z,94987.2
2018-12-10T23:43:13.290Z,94988.7
2018-12-10T23:48:10.879Z,94991.9
2018-12-10T23:53:08.222Z,94982.1
2018-12-10T23:58:05.923Z,94986.2
